< < Back
Terminal Aerodrome Forecast


Current Version              Previous Versions:   1  2  3  4  5  6  7  8  9  

Terminal Aerodrome Forecast

571
FTUS42 KMLB 011005 AAA
TAFDAB
TAF AMD
KDAB 011005Z 0110/0206 04005KT 5SM BR SCT003 BKN025
     FM011400 13006KT P6SM SCT006 BKN020
     FM011800 12008KT P6SM VCSH BKN035
     FM020000 06003KT P6SM SCT020 BKN080
     FM020300 VRB03KT 5SM BR BKN015=



Latest METAR

318
SAUS80 KWBC 011100 RRF
MTRDAB
METAR KDAB 011053Z 02005KT 5SM BR FEW019 BKN034 BKN110 17/16 A3036 RMK
AO2 SLP279 T01670161 $


USA.gov is the U.S. government's official web portal to all federal, state and local government web resources and services.